createdAt,value
2017-08-28T00:00:58.259Z,81.72
2017-08-28T00:03:26.635Z,81.59
2017-08-28T00:05:55.067Z,82.01
2017-08-28T00:08:23.480Z,82.60
2017-08-28T00:10:51.842Z,82.32
2017-08-28T00:13:20.223Z,82.17
2017-08-28T00:15:48.623Z,81.98
2017-08-28T00:18:16.985Z,82.09
2017-08-28T00:20:45.346Z,81.83
2017-08-28T00:23:13.737Z,81.84
2017-08-28T00:25:42.124Z,81.38
2017-08-28T00:28:10.487Z,81.27
2017-08-28T00:30:38.875Z,80.81
2017-08-28T00:33:07.260Z,80.83
2017-08-28T00:35:35.670Z,82.87
2017-08-28T00:38:04.037Z,82.21
2017-08-28T00:40:32.435Z,82.66
2017-08-28T00:43:00.807Z,82.15
2017-08-28T00:45:29.175Z,82.23
2017-08-28T00:47:57.572Z,82.29
2017-08-28T00:50:25.976Z,82.50
2017-08-28T00:52:54.352Z,82.66
2017-08-28T00:55:22.752Z,82.31
2017-08-28T00:57:51.140Z,82.30
2017-08-28T01:00:19.544Z,82.10
2017-08-28T01:02:47.911Z,82.00
2017-08-28T01:05:16.300Z,81.67
2017-08-28T01:07:44.708Z,81.37
2017-08-28T01:10:13.099Z,81.01
2017-08-28T01:12:41.489Z,80.86
2017-08-28T01:15:09.864Z,80.83
2017-08-28T01:17:38.249Z,80.94
2017-08-28T01:20:06.647Z,81.58
2017-08-28T01:22:35.028Z,82.33
2017-08-28T01:25:03.443Z,82.59
2017-08-28T01:27:31.819Z,82.41
2017-08-28T01:30:00.242Z,82.07
2017-08-28T01:32:28.615Z,81.83
2017-08-28T01:34:56.984Z,81.31
2017-08-28T01:37:25.381Z,80.74
2017-08-28T01:39:53.742Z,80.81
2017-08-28T01:42:22.129Z,80.75
2017-08-28T01:44:50.485Z,81.47
2017-08-28T01:47:18.874Z,81.89
2017-08-28T01:49:47.249Z,82.08
2017-08-28T01:52:15.623Z,81.63
2017-08-28T01:54:44.025Z,81.45
2017-08-28T01:57:12.399Z,81.15
2017-08-28T01:59:40.759Z,81.20
2017-08-28T02:02:09.141Z,81.96
2017-08-28T02:04:37.511Z,82.36
2017-08-28T02:07:05.919Z,81.96
2017-08-28T02:09:34.291Z,81.94
2017-08-28T02:12:02.684Z,82.26
2017-08-28T02:14:31.055Z,82.30
2017-08-28T02:16:59.416Z,82.29
2017-08-28T02:19:27.802Z,83.14
2017-08-28T02:21:56.179Z,83.18
2017-08-28T02:24:24.580Z,83.05
2017-08-28T02:26:52.962Z,83.02
2017-08-28T02:29:21.361Z,83.21
2017-08-28T02:31:49.750Z,82.97
2017-08-28T02:34:18.160Z,82.91
2017-08-28T02:36:46.537Z,82.74
2017-08-28T02:39:14.923Z,83.52
2017-08-28T02:41:43.319Z,84.13
2017-08-28T02:44:11.695Z,83.80
2017-08-28T02:46:40.089Z,83.32
2017-08-28T02:49:08.446Z,83.60
2017-08-28T02:51:36.816Z,83.59
2017-08-28T02:54:05.219Z,83.29
2017-08-28T02:56:33.591Z,83.23
2017-08-28T02:59:01.999Z,83.11
2017-08-28T03:01:30.375Z,82.47
2017-08-28T03:03:58.784Z,82.99
2017-08-28T03:06:27.170Z,82.46
2017-08-28T03:08:55.543Z,82.22
2017-08-28T03:11:23.979Z,82.14
2017-08-28T03:13:52.361Z,82.91
2017-08-28T03:16:20.739Z,82.72
2017-08-28T03:18:49.137Z,83.24
2017-08-28T03:21:17.522Z,84.27
2017-08-28T03:23:45.908Z,84.42
2017-08-28T03:26:14.268Z,84.04
2017-08-28T03:28:42.650Z,83.65
2017-08-28T03:31:11.009Z,83.26
2017-08-28T03:33:39.385Z,83.93
2017-08-28T03:36:07.774Z,84.21
2017-08-28T03:38:36.150Z,83.67
2017-08-28T03:41:04.531Z,83.56
2017-08-28T03:43:32.930Z,83.08
2017-08-28T03:46:01.323Z,82.50
2017-08-28T03:48:29.731Z,81.96
2017-08-28T03:50:58.127Z,81.82
2017-08-28T03:53:26.495Z,81.78
2017-08-28T03:55:54.898Z,81.83
2017-08-28T03:58:23.268Z,81.66
2017-08-28T04:00:51.644Z,81.74
2017-08-28T04:03:20.050Z,81.88
2017-08-28T04:05:48.445Z,81.67
2017-08-28T04:08:16.821Z,81.76
2017-08-28T04:10:45.234Z,81.85
2017-08-28T04:13:13.615Z,82.67
2017-08-28T04:15:42.010Z,82.78
2017-08-28T04:18:10.395Z,83.77
2017-08-28T04:20:38.801Z,83.33
2017-08-28T04:23:07.176Z,83.93
2017-08-28T04:25:35.562Z,83.65
2017-08-28T04:28:03.937Z,83.50
2017-08-28T04:30:32.355Z,83.02
2017-08-28T04:33:00.721Z,82.54
2017-08-28T04:35:29.107Z,82.98
2017-08-28T04:37:57.520Z,82.67
2017-08-28T04:40:25.886Z,82.43
2017-08-28T04:42:54.265Z,82.72
2017-08-28T04:45:22.675Z,82.65
2017-08-28T04:47:51.052Z,82.89
2017-08-28T04:50:19.413Z,82.74
2017-08-28T04:52:47.808Z,82.44
2017-08-28T04:55:16.187Z,84.11
2017-08-28T04:57:44.577Z,84.11
2017-08-28T05:00:12.940Z,84.04
2017-08-28T05:02:41.332Z,83.76
2017-08-28T05:05:09.700Z,83.32
2017-08-28T05:07:38.075Z,82.95
2017-08-28T05:10:06.465Z,82.76
2017-08-28T05:12:34.841Z,82.63
2017-08-28T05:15:03.229Z,82.38
2017-08-28T05:17:31.644Z,81.62
2017-08-28T05:20:00.031Z,82.49
2017-08-28T05:22:28.440Z,83.06
2017-08-28T05:24:56.802Z,82.65
2017-08-28T05:27:25.194Z,82.40
2017-08-28T05:29:53.564Z,81.97
2017-08-28T05:32:21.990Z,81.73
2017-08-28T05:34:50.390Z,81.58
2017-08-28T05:37:18.780Z,81.54
2017-08-28T05:39:47.151Z,81.22
2017-08-28T05:42:15.549Z,81.16
2017-08-28T05:44:43.924Z,81.89
2017-08-28T05:47:12.302Z,81.80
2017-08-28T05:49:40.677Z,81.13
2017-08-28T05:52:09.063Z,81.31
2017-08-28T05:54:37.461Z,80.49
2017-08-28T05:57:05.820Z,80.38
2017-08-28T05:59:34.213Z,80.57
2017-08-28T06:02:02.626Z,81.03
2017-08-28T06:04:31.010Z,80.73
2017-08-28T06:06:59.413Z,80.36
2017-08-28T06:09:27.796Z,79.80
2017-08-28T06:11:56.206Z,79.55
2017-08-28T06:14:24.594Z,79.84
2017-08-28T06:16:52.963Z,79.36
2017-08-28T06:19:21.371Z,79.10
2017-08-28T06:21:49.732Z,79.11
2017-08-28T06:24:18.104Z,78.91
2017-08-28T06:26:46.490Z,78.77
2017-08-28T06:29:14.845Z,78.55
2017-08-28T06:31:43.245Z,78.26
2017-08-28T06:34:11.624Z,78.00
2017-08-28T06:36:40.007Z,78.25
2017-08-28T06:39:08.389Z,77.80
2017-08-28T06:41:36.758Z,77.49
2017-08-28T06:44:05.292Z,77.12
2017-08-28T06:46:33.687Z,76.34
2017-08-28T06:49:02.059Z,76.29
2017-08-28T06:51:30.433Z,75.87
2017-08-28T06:53:58.856Z,75.99
2017-08-28T06:56:27.229Z,76.29
2017-08-28T06:58:55.599Z,75.74
2017-08-28T07:01:24.027Z,76.25
2017-08-28T07:03:52.399Z,75.73
2017-08-28T07:06:20.813Z,76.15
2017-08-28T07:08:49.181Z,76.14
2017-08-28T07:11:17.556Z,76.22
2017-08-28T07:13:45.953Z,76.35
2017-08-28T07:16:29.528Z,75.93
2017-08-28T07:18:57.921Z,75.45
2017-08-28T07:21:27.073Z,75.85
2017-08-28T07:23:55.466Z,75.79
2017-08-28T07:26:23.851Z,75.65
2017-08-28T07:28:52.209Z,75.61
2017-08-28T07:31:20.601Z,75.34
2017-08-28T07:33:48.964Z,75.09
2017-08-28T07:36:17.357Z,74.70
2017-08-28T07:38:45.705Z,74.17
2017-08-28T07:41:14.103Z,73.03
2017-08-28T07:43:42.468Z,72.68
2017-08-28T07:46:10.827Z,72.19
2017-08-28T07:48:39.229Z,71.96
2017-08-28T07:51:07.616Z,72.18
2017-08-28T07:53:36.017Z,71.80
2017-08-28T07:56:04.405Z,71.36
2017-08-28T07:58:32.779Z,70.68
2017-08-28T08:01:01.179Z,70.93
2017-08-28T08:03:29.556Z,69.54
2017-08-28T08:05:57.929Z,68.51
2017-08-28T08:08:26.329Z,67.41
2017-08-28T08:10:54.707Z,66.34
2017-08-28T08:13:23.115Z,66.31
2017-08-28T08:15:51.480Z,65.07
2017-08-28T08:18:19.926Z,62.50
2017-08-28T08:20:48.321Z,63.00
2017-08-28T08:23:16.707Z,63.50
2017-08-28T08:25:45.080Z,62.18
2017-08-28T08:28:13.499Z,62.33
2017-08-28T08:30:41.879Z,62.84
2017-08-28T08:33:10.303Z,63.20
2017-08-28T08:35:38.675Z,62.20
2017-08-28T08:38:07.055Z,61.74
2017-08-28T08:40:35.459Z,61.79
2017-08-28T08:43:03.842Z,60.06
2017-08-28T08:45:32.192Z,59.20
2017-08-28T08:48:00.592Z,60.44
2017-08-28T08:50:28.954Z,62.38
2017-08-28T08:52:57.363Z,59.35
2017-08-28T08:55:26.512Z,60.21
2017-08-28T08:57:54.939Z,59.70
2017-08-28T09:00:23.331Z,58.85
2017-08-28T09:02:51.713Z,59.32
2017-08-28T09:05:20.116Z,58.71
2017-08-28T09:07:48.496Z,56.92
2017-08-28T09:10:16.869Z,56.21
2017-08-28T09:12:45.275Z,56.16
2017-08-28T09:15:13.649Z,56.60
2017-08-28T09:17:42.032Z,54.30
2017-08-28T09:20:10.408Z,57.29
2017-08-28T09:22:38.790Z,53.98
2017-08-28T09:25:07.149Z,55.35
2017-08-28T09:27:35.546Z,55.45
2017-08-28T09:30:03.926Z,57.14
2017-08-28T09:32:32.285Z,54.82
2017-08-28T09:35:00.694Z,51.59
2017-08-28T09:37:29.073Z,56.59
2017-08-28T09:39:57.430Z,55.66
2017-08-28T09:42:25.804Z,52.16
2017-08-28T09:44:54.184Z,52.92
2017-08-28T09:47:22.581Z,52.63
2017-08-28T09:49:50.937Z,49.17
2017-08-28T09:52:19.311Z,52.40
2017-08-28T09:54:47.715Z,52.06
2017-08-28T09:57:16.100Z,50.09
2017-08-28T09:59:44.471Z,51.83
2017-08-28T10:02:12.872Z,47.96
2017-08-28T10:04:41.228Z,49.82
2017-08-28T10:07:09.623Z,51.53
2017-08-28T10:09:37.985Z,49.91
2017-08-28T10:12:06.378Z,49.34
2017-08-28T10:14:34.744Z,50.79
2017-08-28T10:17:03.129Z,50.00
2017-08-28T10:19:31.489Z,49.98
2017-08-28T10:21:59.858Z,50.39
2017-08-28T10:24:28.263Z,48.70
2017-08-28T10:26:55.991Z,49.18
2017-08-28T10:29:24.377Z,49.93
2017-08-28T10:31:52.759Z,48.66
2017-08-28T10:34:21.160Z,48.50
2017-08-28T10:36:49.528Z,46.75
2017-08-28T10:39:17.920Z,47.59
2017-08-28T10:41:46.296Z,45.92
2017-08-28T10:44:14.672Z,48.19
2017-08-28T10:46:43.079Z,42.54
2017-08-28T10:49:11.458Z,45.47
2017-08-28T10:51:39.838Z,46.26
2017-08-28T10:54:08.240Z,46.00
2017-08-28T10:56:36.621Z,44.98
2017-08-28T10:59:05.018Z,46.92
2017-08-28T11:01:33.395Z,46.20
2017-08-28T11:04:01.766Z,46.25
2017-08-28T11:06:30.173Z,47.28
2017-08-28T11:08:58.576Z,47.66
2017-08-28T11:11:26.964Z,46.13
2017-08-28T11:13:55.339Z,45.87
2017-08-28T11:16:23.733Z,43.01
2017-08-28T11:18:52.116Z,43.54
2017-08-28T11:21:20.509Z,43.33
2017-08-28T11:23:48.873Z,42.79
2017-08-28T11:26:17.271Z,41.30
2017-08-28T11:28:45.640Z,41.54
2017-08-28T11:31:14.029Z,40.12
2017-08-28T11:33:42.385Z,41.13
2017-08-28T11:36:10.773Z,40.47
2017-08-28T11:38:39.167Z,40.88
2017-08-28T11:41:07.553Z,42.99
2017-08-28T11:43:35.920Z,42.96
2017-08-28T11:46:04.320Z,42.81
2017-08-28T11:48:32.693Z,41.50
2017-08-28T11:51:01.065Z,41.38
2017-08-28T11:53:29.466Z,40.62
2017-08-28T11:55:57.898Z,36.64
2017-08-28T11:58:26.289Z,37.99
2017-08-28T12:00:54.662Z,38.20
2017-08-28T12:03:23.062Z,39.25
2017-08-28T12:05:51.429Z,38.03
2017-08-28T12:08:19.841Z,38.85
2017-08-28T12:10:48.192Z,40.32
2017-08-28T12:13:16.594Z,42.78
2017-08-28T12:15:45.007Z,43.01
2017-08-28T12:18:13.416Z,40.31
2017-08-28T12:20:41.784Z,38.13
2017-08-28T12:23:10.179Z,40.72
2017-08-28T12:25:38.552Z,37.16
2017-08-28T12:28:06.959Z,40.53
2017-08-28T12:30:35.338Z,40.94
2017-08-28T12:33:03.710Z,41.41
2017-08-28T12:35:32.111Z,40.27
2017-08-28T12:38:00.489Z,39.54
2017-08-28T12:40:28.845Z,39.69
2017-08-28T12:42:57.251Z,38.38
2017-08-28T12:45:25.616Z,36.42
2017-08-28T12:47:54.882Z,37.61
2017-08-28T12:50:23.264Z,39.97
2017-08-28T12:52:51.630Z,37.12
2017-08-28T12:55:20.039Z,37.65
2017-08-28T12:57:48.427Z,36.28
2017-08-28T13:00:16.789Z,38.62
2017-08-28T13:02:45.191Z,36.33
2017-08-28T13:05:13.563Z,39.96
2017-08-28T13:07:41.932Z,33.49
2017-08-28T13:10:10.331Z,34.69
2017-08-28T13:12:38.693Z,37.02
2017-08-28T13:15:07.069Z,34.49
2017-08-28T13:17:35.449Z,34.46
2017-08-28T13:20:03.818Z,35.60
2017-08-28T13:22:32.223Z,33.30
2017-08-28T13:25:00.584Z,33.33
2017-08-28T13:27:28.973Z,31.37
2017-08-28T13:29:57.345Z,31.24
2017-08-28T13:32:25.711Z,31.37
2017-08-28T13:34:54.101Z,31.81
2017-08-28T13:37:22.465Z,33.46
2017-08-28T13:39:50.872Z,32.47
2017-08-28T13:42:19.249Z,32.17
2017-08-28T13:44:47.652Z,30.83
2017-08-28T13:47:16.013Z,32.26
2017-08-28T13:49:44.377Z,31.19
2017-08-28T13:52:12.762Z,32.96
2017-08-28T13:54:41.134Z,33.51
2017-08-28T13:57:09.528Z,31.85
2017-08-28T13:59:37.899Z,31.15
2017-08-28T14:02:06.265Z,31.19
2017-08-28T14:04:34.654Z,29.87
2017-08-28T14:07:03.030Z,27.80
2017-08-28T14:09:31.406Z,25.66
2017-08-28T14:11:59.798Z,26.36
2017-08-28T14:14:28.171Z,25.11
2017-08-28T14:16:56.562Z,25.55
2017-08-28T14:19:24.959Z,24.96
2017-08-28T14:21:53.325Z,23.16
2017-08-28T14:24:21.724Z,25.25
2017-08-28T14:26:50.099Z,24.01
2017-08-28T14:29:18.483Z,23.77
2017-08-28T14:31:46.887Z,24.81
2017-08-28T14:34:15.261Z,26.32
2017-08-28T14:36:43.662Z,25.94
2017-08-28T14:39:12.035Z,25.81
2017-08-28T14:41:40.398Z,25.51
2017-08-28T14:44:08.785Z,24.43
2017-08-28T14:46:37.159Z,23.87
2017-08-28T14:49:05.545Z,24.18
2017-08-28T14:51:33.905Z,23.21
2017-08-28T14:54:02.266Z,22.30
2017-08-28T14:56:30.651Z,23.59
2017-08-28T14:58:59.023Z,23.52
2017-08-28T15:01:27.404Z,23.66
2017-08-28T15:03:55.769Z,24.58
2017-08-28T15:06:24.151Z,26.19
2017-08-28T15:08:52.580Z,24.80
2017-08-28T15:11:20.945Z,26.65
2017-08-28T15:13:49.368Z,25.57
2017-08-28T15:16:17.740Z,24.87
2017-08-28T15:18:46.107Z,25.18
2017-08-28T15:21:14.492Z,26.17
2017-08-28T15:23:42.864Z,24.38
2017-08-28T15:26:11.275Z,26.04
2017-08-28T15:28:39.638Z,26.11
2017-08-28T15:31:08.029Z,28.02
2017-08-28T15:33:36.421Z,26.84
2017-08-28T15:36:04.804Z,27.87
2017-08-28T15:38:33.202Z,28.45
2017-08-28T15:41:01.574Z,26.83
2017-08-28T15:43:29.942Z,26.89
2017-08-28T15:45:58.347Z,24.62
2017-08-28T15:48:26.722Z,26.06
2017-08-28T15:50:55.097Z,28.04
2017-08-28T15:53:23.494Z,25.65
2017-08-28T15:55:51.857Z,27.28
2017-08-28T15:58:20.259Z,26.78
2017-08-28T16:00:48.641Z,27.68
2017-08-28T16:03:17.020Z,26.97
2017-08-28T16:05:45.417Z,26.68
2017-08-28T16:08:13.801Z,27.35
2017-08-28T16:10:42.176Z,27.60
2017-08-28T16:13:10.581Z,26.04
2017-08-28T16:15:38.960Z,26.81
2017-08-28T16:18:07.376Z,25.96
2017-08-28T16:20:35.758Z,25.93
2017-08-28T16:23:04.150Z,27.75
2017-08-28T16:25:32.533Z,25.77
2017-08-28T16:28:00.926Z,25.77
2017-08-28T16:30:29.310Z,25.85
2017-08-28T16:32:57.711Z,25.84
2017-08-28T16:35:26.074Z,25.77
2017-08-28T16:37:54.467Z,25.87
2017-08-28T16:40:22.861Z,28.27
2017-08-28T16:42:51.221Z,28.85
2017-08-28T16:45:19.589Z,29.17
2017-08-28T16:47:47.995Z,26.74
2017-08-28T16:50:16.358Z,27.57
2017-08-28T16:52:44.727Z,28.00
2017-08-28T16:55:13.138Z,29.21
2017-08-28T16:57:41.509Z,30.12
2017-08-28T17:00:09.918Z,30.25
2017-08-28T17:02:38.314Z,31.37
2017-08-28T17:05:06.687Z,30.99
2017-08-28T17:07:35.053Z,31.82
2017-08-28T17:10:04.225Z,33.05
2017-08-28T17:12:32.713Z,33.11
2017-08-28T17:15:03.428Z,32.50
2017-08-28T17:17:31.795Z,32.70
2017-08-28T17:20:00.189Z,32.47
2017-08-28T17:22:28.557Z,32.58
2017-08-28T17:24:56.926Z,33.38
2017-08-28T17:27:25.362Z,34.14
2017-08-28T17:29:53.751Z,36.08
2017-08-28T17:32:22.123Z,37.56
2017-08-28T17:34:50.536Z,37.08
2017-08-28T17:37:18.914Z,39.47
2017-08-28T17:39:47.336Z,40.19
2017-08-28T17:42:15.728Z,39.80
2017-08-28T17:44:44.104Z,40.65
2017-08-28T17:47:12.519Z,40.70
2017-08-28T17:49:40.903Z,42.47
2017-08-28T17:52:09.270Z,45.22
2017-08-28T17:54:37.671Z,48.15
2017-08-28T17:57:06.037Z,50.17
2017-08-28T17:59:34.422Z,51.24
2017-08-28T18:02:02.793Z,52.31
2017-08-28T18:04:31.185Z,52.80
2017-08-28T18:06:59.556Z,53.44
2017-08-28T18:09:27.914Z,54.53
2017-08-28T18:11:56.312Z,55.06
2017-08-28T18:14:24.678Z,55.81
2017-08-28T18:16:53.043Z,57.38
2017-08-28T18:19:21.549Z,57.99
2017-08-28T18:21:50.158Z,58.15
2017-08-28T18:24:18.860Z,58.62
2017-08-28T18:26:47.556Z,58.77
2017-08-28T18:29:16.282Z,59.16
2017-08-28T18:31:45.017Z,60.16
2017-08-28T18:34:13.709Z,61.31
2017-08-28T18:36:42.426Z,61.68
2017-08-28T18:39:11.112Z,62.19
2017-08-28T18:41:39.822Z,62.49
2017-08-28T18:44:08.545Z,63.48
2017-08-28T18:46:37.241Z,62.92
2017-08-28T18:49:06.140Z,63.50
2017-08-28T18:51:34.862Z,63.99
2017-08-28T18:54:03.613Z,64.07
2017-08-28T18:56:32.301Z,64.28
2017-08-28T18:59:01.011Z,63.96
2017-08-28T19:01:29.681Z,64.35
2017-08-28T19:03:58.411Z,64.38
2017-08-28T19:06:27.154Z,63.74
2017-08-28T19:08:56.042Z,63.85
2017-08-28T19:11:24.793Z,63.67
2017-08-28T19:13:53.606Z,64.32
2017-08-28T19:16:22.349Z,64.50
2017-08-28T19:18:51.108Z,64.45
2017-08-28T19:21:20.677Z,64.61
2017-08-28T19:23:49.406Z,65.45
2017-08-28T19:26:18.345Z,65.70
2017-08-28T19:28:47.065Z,65.18
2017-08-28T19:31:15.754Z,65.52
2017-08-28T19:34:09.129Z,66.23
2017-08-28T19:36:37.816Z,65.87
2017-08-28T19:39:07.517Z,65.62
2017-08-28T19:41:36.250Z,66.22
2017-08-28T19:44:05.309Z,65.84
2017-08-28T19:46:33.990Z,66.08
2017-08-28T19:49:02.433Z,66.56
2017-08-28T19:51:30.812Z,66.66
2017-08-28T19:53:59.205Z,67.38
2017-08-28T19:56:27.570Z,67.51
2017-08-28T19:58:55.943Z,67.87
2017-08-28T20:01:24.334Z,68.10
2017-08-28T20:03:52.718Z,68.62
2017-08-28T20:06:21.351Z,68.89
2017-08-28T20:08:50.279Z,68.60
2017-08-28T20:11:19.033Z,68.79
2017-08-28T20:13:47.481Z,68.86
2017-08-28T20:16:15.883Z,69.18
2017-08-28T20:18:44.277Z,69.87
2017-08-28T20:21:12.658Z,69.59
2017-08-28T20:23:41.113Z,69.55
2017-08-28T20:26:09.485Z,70.41
2017-08-28T20:28:37.851Z,70.67
2017-08-28T20:31:06.242Z,71.70
2017-08-28T20:33:34.600Z,71.76
2017-08-28T20:36:02.961Z,71.41
2017-08-28T20:38:31.363Z,71.50
2017-08-28T20:40:59.828Z,71.71
2017-08-28T20:43:28.228Z,71.89
2017-08-28T20:45:56.636Z,71.78
2017-08-28T20:48:25.015Z,72.26
2017-08-28T20:50:53.387Z,72.76
2017-08-28T20:53:21.788Z,73.36
2017-08-28T20:55:50.173Z,73.18
2017-08-28T20:58:18.556Z,73.39
2017-08-28T21:00:47.324Z,72.99
2017-08-28T21:03:16.075Z,72.91
2017-08-28T21:05:44.447Z,73.27
2017-08-28T21:08:12.865Z,73.37
2017-08-28T21:10:42.337Z,73.62
2017-08-28T21:13:10.701Z,73.44
2017-08-28T21:15:39.209Z,73.99
2017-08-28T21:18:07.855Z,74.21
2017-08-28T21:20:36.306Z,74.31
2017-08-28T21:23:04.717Z,74.50
2017-08-28T21:25:33.092Z,74.80
2017-08-28T21:28:01.464Z,74.70
2017-08-28T21:30:29.875Z,74.88
2017-08-28T21:32:58.247Z,75.28
2017-08-28T21:35:26.605Z,75.37
2017-08-28T21:37:54.999Z,75.53
2017-08-28T21:40:23.369Z,75.45
2017-08-28T21:42:51.766Z,75.50
2017-08-28T21:45:20.168Z,75.94
2017-08-28T21:47:48.575Z,76.07
2017-08-28T21:50:16.959Z,76.22
2017-08-28T21:52:45.358Z,76.19
2017-08-28T21:55:13.756Z,76.41
2017-08-28T21:57:42.162Z,76.19
2017-08-28T22:00:10.521Z,76.28
2017-08-28T22:02:38.878Z,76.23
2017-08-28T22:05:07.509Z,76.21
2017-08-28T22:07:35.901Z,76.22
2017-08-28T22:10:04.367Z,76.56
2017-08-28T22:12:32.756Z,76.37
2017-08-28T22:15:01.121Z,76.44
2017-08-28T22:17:29.515Z,77.00
2017-08-28T22:19:57.877Z,76.72
2017-08-28T22:22:26.247Z,76.90
2017-08-28T22:24:54.644Z,76.76
2017-08-28T22:27:23.043Z,76.84
2017-08-28T22:29:51.418Z,77.43
2017-08-28T22:32:19.853Z,77.34
2017-08-28T22:34:48.243Z,77.19
2017-08-28T22:37:16.905Z,77.17
2017-08-28T22:39:45.314Z,77.36
2017-08-28T22:42:13.676Z,77.48
2017-08-28T22:44:42.055Z,78.19
2017-08-28T22:47:10.466Z,77.98
2017-08-28T22:49:38.843Z,77.68
2017-08-28T22:52:07.227Z,77.82
2017-08-28T22:54:35.652Z,78.25
2017-08-28T22:57:04.023Z,78.09
2017-08-28T22:59:32.390Z,77.92
2017-08-28T23:02:00.779Z,78.48
2017-08-28T23:04:29.152Z,78.85
2017-08-28T23:06:57.513Z,78.79
2017-08-28T23:09:25.913Z,78.62
2017-08-28T23:11:54.280Z,78.81
2017-08-28T23:14:22.649Z,79.01
2017-08-28T23:16:51.047Z,79.00
2017-08-28T23:19:19.415Z,79.02
2017-08-28T23:21:47.792Z,79.40
2017-08-28T23:24:16.216Z,79.31
2017-08-28T23:26:44.587Z,79.44
2017-08-28T23:29:12.980Z,79.59
2017-08-28T23:31:41.403Z,80.61
2017-08-28T23:34:09.776Z,80.83
2017-08-28T23:36:38.142Z,80.19
2017-08-28T23:39:06.548Z,80.24
2017-08-28T23:41:34.934Z,80.38
2017-08-28T23:44:03.301Z,80.66
2017-08-28T23:46:31.715Z,79.88
2017-08-28T23:49:00.087Z,79.67
2017-08-28T23:51:28.467Z,79.52
2017-08-28T23:53:56.884Z,79.45
2017-08-28T23:56:25.245Z,80.59
2017-08-28T23:58:53.627Z,80.75
